Time;durP1;ratioP1;P1;durP2;ratioP2;P2;SDS_P1;SDS_P2;PMS_P1;PMS_P2;Temp;Humidity;BMP_temperature;BMP_pressure;BME280_temperature;BME280_humidity;BME280_pressure;Samples;Min_cycle;Max_cycle;Signal;HPM_P1;HPM_P2
2023/01/24 00:02:13;;;;;;;24.53;23.43;;;20.00;47.00;;;;;;5053657;28;20452;-55
2023/01/24 00:04:39;;;;;;;24.40;23.40;;;20.00;47.00;;;;;;5053463;28;20851;-56
2023/01/24 00:07:07;;;;;;;23.97;22.83;;;20.00;47.00;;;;;;5053318;28;20464;-61
2023/01/24 00:09:34;;;;;;;24.40;23.30;;;20.00;47.10;;;;;;5052904;28;20547;-58
2023/01/24 00:12:01;;;;;;;24.10;23.00;;;20.00;47.10;;;;;;5053259;28;20531;-58
2023/01/24 00:14:28;;;;;;;24.07;22.97;;;19.90;47.10;;;;;;5053167;28;20483;-61
2023/01/24 00:16:55;;;;;;;24.30;23.10;;;19.90;47.20;;;;;;5053200;28;20551;-61
2023/01/24 00:19:21;;;;;;;24.00;22.90;;;19.90;47.20;;;;;;5052867;28;20823;-60
2023/01/24 00:21:48;;;;;;;23.63;22.63;;;19.90;47.20;;;;;;5053094;28;20536;-60
2023/01/24 00:24:16;;;;;;;24.67;23.50;;;19.90;47.20;;;;;;5053183;28;20444;-61
2023/01/24 00:26:43;;;;;;;23.70;22.70;;;19.90;47.40;;;;;;5052869;28;21048;-59
2023/01/24 00:29:10;;;;;;;24.00;22.90;;;19.80;47.20;;;;;;5052979;28;20793;-57
2023/01/24 00:31:37;;;;;;;24.40;23.30;;;19.80;47.30;;;;;;5052752;28;20550;-59
2023/01/24 00:34:04;;;;;;;24.60;23.53;;;19.80;47.30;;;;;;5052817;28;20984;-58
2023/01/24 00:36:30;;;;;;;23.80;22.80;;;19.80;47.30;;;;;;5052769;28;20460;-60
2023/01/24 00:38:57;;;;;;;24.67;23.67;;;19.80;47.40;;;;;;5052630;28;20578;-54
2023/01/24 00:41:25;;;;;;;23.60;22.60;;;19.70;47.30;;;;;;5052433;28;20527;-59
2023/01/24 00:43:52;;;;;;;23.10;22.10;;;19.80;47.50;;;;;;5052682;28;21025;-58
2023/01/24 00:46:19;;;;;;;23.40;22.30;;;19.70;47.30;;;;;;5052975;28;20619;-61
2023/01/24 00:48:46;;;;;;;22.50;21.60;;;19.70;47.40;;;;;;5052439;28;20547;-61
2023/01/24 00:51:13;;;;;;;23.33;22.33;;;19.70;47.40;;;;;;5052205;28;20444;-60
2023/01/24 00:53:39;;;;;;;24.00;23.00;;;19.70;47.40;;;;;;5052521;28;20535;-60
2023/01/24 00:56:07;;;;;;;24.67;23.57;;;19.70;47.50;;;;;;5052298;28;20484;-60
2023/01/24 00:58:36;;;;;;;23.10;22.10;;;19.70;47.50;;;;;;5052468;28;20455;-58
2023/01/24 01:01:03;;;;;;;24.20;23.13;;;19.70;47.50;;;;;;5051567;28;20949;-57
2023/01/24 01:03:30;;;;;;;24.07;23.07;;;19.70;47.50;;;;;;5052392;28;20444;-58
2023/01/24 01:06:02;;;;;;;24.93;23.80;;;19.70;47.50;;;;;;5052372;28;20559;-59
2023/01/24 01:08:29;;;;;;;23.70;22.70;;;19.60;48.00;;;;;;5052192;28;20453;-60
2023/01/24 01:10:56;;;;;;;23.30;22.30;;;19.70;47.60;;;;;;5051672;28;20450;-62
2023/01/24 01:13:22;;;;;;;24.20;23.10;;;19.60;47.50;;;;;;5051647;28;20449;-59
2023/01/24 01:15:51;;;;;;;23.73;22.73;;;19.60;47.50;;;;;;5052070;28;20484;-62
2023/01/24 01:18:18;;;;;;;24.57;23.47;;;19.60;47.50;;;;;;5052167;28;20539;-62
2023/01/24 01:20:50;;;;;;;24.33;23.23;;;19.60;47.50;;;;;;5051268;28;20813;-63
2023/01/24 01:23:17;;;;;;;23.80;22.80;;;19.60;47.60;;;;;;5051904;28;21073;-61
2023/01/24 01:25:44;;;;;;;24.60;23.50;;;19.60;47.60;;;;;;5051874;28;20460;-62
2023/01/24 01:28:11;;;;;;;24.63;23.53;;;19.60;47.60;;;;;;5051838;28;21033;-63
2023/01/24 01:30:37;;;;;;;23.60;22.60;;;19.60;47.60;;;;;;5051277;28;20539;-63
2023/01/24 01:33:06;;;;;;;23.83;22.83;;;19.60;47.60;;;;;;5051841;28;20964;-60
2023/01/24 01:35:32;;;;;;;23.23;22.20;;;19.60;47.70;;;;;;5051642;28;20512;-63
2023/01/24 01:37:59;;;;;;;23.73;22.63;;;19.60;47.70;;;;;;5051742;28;20945;-63
2023/01/24 01:40:26;;;;;;;23.40;22.40;;;19.60;47.70;;;;;;5051177;28;20455;-62
2023/01/24 01:42:55;;;;;;;24.53;23.43;;;19.60;47.70;;;;;;5051952;28;20929;-61
2023/01/24 01:45:35;;;;;;;24.10;23.10;;;19.60;47.70;;;;;;5051471;28;20926;-63
2023/01/24 01:48:13;;;;;;;23.50;22.50;;;19.50;47.60;;;;;;5051615;28;20811;-61
2023/01/24 01:50:43;;;;;;;24.40;23.30;;;19.50;47.60;;;;;;5050907;28;20452;-62
2023/01/24 01:53:11;;;;;;;24.53;23.43;;;19.50;47.60;;;;;;5051593;28;20480;-61
2023/01/24 01:55:41;;;;;;;23.00;22.00;;;19.50;47.60;;;;;;5051392;28;20498;-63
2023/01/24 01:58:09;;;;;;;23.30;22.30;;;19.50;47.60;;;;;;5051566;28;20809;-63
2023/01/24 02:00:36;;;;;;;22.03;21.13;;;19.50;47.60;;;;;;5051107;28;20452;-60
2023/01/24 02:05:55;;;;;;;22.30;21.30;;;19.50;47.70;;;;;;5051562;28;20563;-62
2023/01/24 02:08:23;;;;;;;24.00;23.00;;;19.50;47.70;;;;;;5051744;28;20446;-62
2023/01/24 02:13:38;;;;;;;23.20;22.10;;;19.50;47.70;;;;;;5051656;28;20427;-62
2023/01/24 02:16:06;;;;;;;24.03;22.87;;;19.40;47.60;;;;;;5051206;28;20492;-62
2023/01/24 02:18:35;;;;;;;22.50;21.60;;;19.50;47.70;;;;;;5051427;28;20925;-63
2023/01/24 02:21:05;;;;;;;22.87;21.87;;;19.50;47.70;;;;;;5050866;28;20451;-62
2023/01/24 02:23:40;;;;;;;23.10;22.10;;;19.40;47.60;;;;;;5050601;28;20454;-62
2023/01/24 02:26:10;;;;;;;23.63;22.53;;;19.40;47.70;;;;;;5054884;28;20467;-61
2023/01/24 02:28:39;;;;;;;22.57;21.60;;;19.40;47.60;;;;;;5056298;28;20455;-62
2023/01/24 02:31:06;;;;;;;22.93;21.83;;;19.40;47.60;;;;;;5055085;28;20964;-63
2023/01/24 02:33:34;;;;;;;23.13;22.13;;;19.40;47.70;;;;;;5055251;28;20444;-63
2023/01/24 02:36:18;;;;;;;22.70;21.70;;;19.40;47.60;;;;;;5054953;28;20483;-61
2023/01/24 02:38:50;;;;;;;22.47;21.57;;;19.40;47.70;;;;;;5055054;28;20440;-61
2023/01/24 02:41:23;;;;;;;23.77;22.67;;;19.40;47.60;;;;;;5054862;28;20546;-62
2023/01/24 02:43:53;;;;;;;22.67;21.67;;;19.40;47.70;;;;;;5055064;28;20555;-62
2023/01/24 02:46:20;;;;;;;22.63;21.63;;;19.40;47.60;;;;;;5054794;28;20472;-62
2023/01/24 02:48:46;;;;;;;22.17;21.27;;;19.40;47.60;;;;;;5054787;28;20538;-63
2023/01/24 02:53:58;;;;;;;23.40;22.50;;;19.40;47.70;;;;;;5054860;28;20448;-62
2023/01/24 02:59:11;;;;;;;23.87;22.87;;;19.40;47.70;;;;;;5054380;28;20458;-62
2023/01/24 03:01:37;;;;;;;23.20;22.20;;;19.40;47.70;;;;;;5054318;28;20491;-62
2023/01/24 03:04:04;;;;;;;24.23;23.23;;;19.40;48.30;;;;;;5054726;28;20527;-60
2023/01/24 03:06:31;;;;;;;23.07;22.07;;;19.40;47.80;;;;;;5054566;28;20460;-63
2023/01/24 03:08:58;;;;;;;23.47;22.37;;;19.40;47.80;;;;;;5054210;28;20982;-63
2023/01/24 03:11:26;;;;;;;22.97;21.93;;;19.40;47.80;;;;;;5054424;28;20535;-62
2023/01/24 03:35:58;;;;;;;22.47;21.57;;;19.40;47.80;;;;;;5053344;28;20478;-61
2023/01/24 03:41:09;;;;;;;23.40;22.30;;;19.30;47.80;;;;;;5053891;28;20491;-62
2023/01/24 03:43:37;;;;;;;23.23;22.23;;;19.30;47.80;;;;;;5054020;28;20531;-62
2023/01/24 03:46:04;;;;;;;22.40;21.50;;;19.30;47.90;;;;;;5053336;28;20556;-61
2023/01/24 03:48:36;;;;;;;23.20;22.20;;;19.30;47.90;;;;;;5053889;28;20470;-61
2023/01/24 03:53:48;;;;;;;22.63;21.73;;;19.30;48.00;;;;;;5053822;28;20443;-63
2023/01/24 03:56:15;;;;;;;23.43;22.40;;;19.30;47.90;;;;;;5053075;28;20476;-58
2023/01/24 03:58:43;;;;;;;23.60;22.60;;;19.30;48.00;;;;;;5053583;28;20543;-57
2023/01/24 04:01:10;;;;;;;23.83;22.83;;;19.30;48.00;;;;;;5053440;28;20438;-58
2023/01/24 04:03:36;;;;;;;23.53;22.53;;;19.30;48.00;;;;;;5053561;28;20446;-59
2023/01/24 04:06:04;;;;;;;23.53;22.53;;;19.30;48.00;;;;;;5053082;28;20543;-60
2023/01/24 04:08:30;;;;;;;23.77;22.80;;;19.30;48.10;;;;;;5053478;28;20448;-61
2023/01/24 04:10:57;;;;;;;23.53;22.53;;;19.30;48.10;;;;;;5053328;28;20446;-55
2023/01/24 04:13:24;;;;;;;22.93;22.03;;;19.30;48.10;;;;;;5053391;28;20451;-57
2023/01/24 04:15:52;;;;;;;23.93;22.93;;;19.30;48.10;;;;;;5052822;28;20494;-59
2023/01/24 04:18:19;;;;;;;24.03;23.03;;;19.30;48.00;;;;;;5053256;28;20539;-60
2023/01/24 04:20:46;;;;;;;23.33;22.33;;;19.30;48.00;;;;;;5053005;28;20487;-60
2023/01/24 04:23:13;;;;;;;23.20;22.30;;;19.30;48.00;;;;;;5053150;28;20519;-60
2023/01/24 04:25:39;;;;;;;23.17;22.23;;;19.30;48.00;;;;;;5053180;28;20551;-61
2023/01/24 04:28:06;;;;;;;23.97;22.97;;;19.30;48.00;;;;;;5052703;28;20454;-59
2023/01/24 04:30:33;;;;;;;23.27;22.33;;;19.30;48.00;;;;;;5052805;28;20447;-60
2023/01/24 04:33:02;;;;;;;23.63;22.63;;;19.30;48.00;;;;;;5052950;28;20454;-59
2023/01/24 04:35:30;;;;;;;23.40;22.40;;;19.30;48.00;;;;;;5052615;28;21124;-59
2023/01/24 04:38:01;;;;;;;23.90;22.90;;;19.30;48.00;;;;;;5052694;28;20502;-59
2023/01/24 04:40:28;;;;;;;23.70;22.70;;;19.30;48.00;;;;;;5052518;28;20454;-58
2023/01/24 04:42:56;;;;;;;23.20;22.20;;;19.30;48.00;;;;;;5052774;28;20449;-57
2023/01/24 04:45:23;;;;;;;24.30;23.20;;;19.30;47.90;;;;;;5052449;28;20437;-57
2023/01/24 04:47:50;;;;;;;23.70;22.70;;;19.30;47.90;;;;;;5051611;28;20451;-61
2023/01/24 04:50:18;;;;;;;23.97;23.00;;;19.30;47.90;;;;;;5052330;28;20531;-56
2023/01/24 04:52:45;;;;;;;24.17;23.10;;;19.30;47.90;;;;;;5052607;28;20872;-59
2023/01/24 04:55:12;;;;;;;23.77;22.77;;;19.30;47.90;;;;;;5052420;28;20483;-59
2023/01/24 04:57:39;;;;;;;23.40;22.40;;;19.30;47.90;;;;;;5052110;28;20494;-61
2023/01/24 05:00:08;;;;;;;24.80;23.80;;;19.30;47.90;;;;;;5052131;28;20452;-61
2023/01/24 05:02:37;;;;;;;26.27;24.93;;;19.30;47.90;;;;;;5052323;28;20959;-59
2023/01/24 05:05:04;;;;;;;25.67;24.63;;;19.30;47.90;;;;;;5051749;28;20455;-59
2023/01/24 05:07:32;;;;;;;25.67;24.57;;;19.30;47.90;;;;;;5052256;28;20456;-58
2023/01/24 05:09:59;;;;;;;25.00;24.00;;;19.30;47.90;;;;;;5052104;28;20934;-61
2023/01/24 05:12:26;;;;;;;26.00;24.90;;;19.30;47.90;;;;;;5052171;28;20443;-54
2023/01/24 05:14:52;;;;;;;25.63;24.47;;;19.30;47.90;;;;;;5051987;28;20440;-57
2023/01/24 05:17:19;;;;;;;24.07;23.07;;;19.30;47.90;;;;;;5051227;28;20575;-52
2023/01/24 05:19:46;;;;;;;25.10;24.00;;;19.30;47.90;;;;;;5050843;28;20456;-57
2023/01/24 05:22:13;;;;;;;26.40;25.30;;;19.30;47.90;;;;;;5050580;28;20531;-51
2023/01/24 05:24:41;;;;;;;26.10;24.90;;;19.30;48.00;;;;;;5051459;28;20969;-58
2023/01/24 05:27:08;;;;;;;25.97;24.87;;;19.30;48.10;;;;;;5051895;28;20551;-53
2023/01/24 05:29:35;;;;;;;25.30;24.10;;;19.30;48.30;;;;;;5052070;28;20448;-56
2023/01/24 05:32:02;;;;;;;24.60;23.50;;;19.30;48.50;;;;;;5051677;28;20543;-60
2023/01/24 05:34:28;;;;;;;25.07;24.00;;;19.30;48.50;;;;;;5051809;28;20535;-55
2023/01/24 05:36:55;;;;;;;24.77;23.70;;;19.30;48.50;;;;;;5052197;28;20578;-52
2023/01/24 05:39:22;;;;;;;25.10;23.83;;;19.30;48.60;;;;;;5051352;28;20531;-55
2023/01/24 05:41:50;;;;;;;25.70;24.60;;;19.30;48.60;;;;;;5051774;28;20453;-55
2023/01/24 05:44:17;;;;;;;25.40;24.30;;;19.30;48.60;;;;;;5052193;28;20873;-55
2023/01/24 05:46:44;;;;;;;26.13;24.93;;;19.30;48.60;;;;;;5052248;28;20476;-60
2023/01/24 05:49:11;;;;;;;24.63;23.53;;;19.30;48.50;;;;;;5051204;28;20440;-60
2023/01/24 05:51:38;;;;;;;23.97;22.97;;;19.30;48.50;;;;;;5051677;28;20446;-56
2023/01/24 05:54:05;;;;;;;24.47;23.37;;;19.40;48.50;;;;;;5051706;28;20530;-59
2023/01/24 05:56:31;;;;;;;24.80;23.70;;;19.50;48.40;;;;;;5052078;28;20567;-56
2023/01/24 05:59:01;;;;;;;24.90;23.90;;;19.60;48.20;;;;;;5051572;28;20443;-59
2023/01/24 06:01:28;;;;;;;25.87;24.77;;;19.60;48.00;;;;;;5051585;28;20448;-53
2023/01/24 06:03:55;;;;;;;27.00;25.80;;;19.70;47.90;;;;;;5051603;28;20815;-57
2023/01/24 06:06:24;;;;;;;25.87;24.77;;;19.70;47.70;;;;;;5051310;28;20543;-60
2023/01/24 06:08:51;;;;;;;26.90;25.80;;;19.80;47.70;;;;;;5051374;28;20439;-58
2023/01/24 06:11:20;;;;;;;26.43;25.10;;;19.80;47.60;;;;;;5051533;28;20440;-57
2023/01/24 06:13:47;;;;;;;24.80;23.70;;;19.90;47.50;;;;;;5051434;28;20444;-57
2023/01/24 06:16:17;;;;;;;26.97;25.80;;;19.80;47.30;;;;;;5051892;28;20837;-58
2023/01/24 06:18:45;;;;;;;25.80;24.70;;;19.90;47.20;;;;;;5051572;28;20531;-60
2023/01/24 06:21:25;;;;;;;24.27;23.20;;;19.90;47.10;;;;;;5051317;28;20813;-59
2023/01/24 06:23:52;;;;;;;24.40;23.40;;;19.90;47.00;;;;;;5051575;28;20615;-53
2023/01/24 06:26:19;;;;;;;24.67;23.47;;;19.90;46.90;;;;;;5051365;28;20468;-59
2023/01/24 06:28:47;;;;;;;25.07;23.87;;;19.90;46.80;;;;;;5051128;28;20439;-59
2023/01/24 06:31:28;;;;;;;25.23;24.13;;;20.00;46.90;;;;;;5051315;28;20454;-58
2023/01/24 06:34:14;;;;;;;25.07;23.87;;;20.00;46.80;;;;;;5051367;28;20455;-57
2023/01/24 06:36:53;;;;;;;24.40;23.30;;;20.00;46.70;;;;;;5051110;28;20491;-61
2023/01/24 06:39:21;;;;;;;24.13;23.03;;;20.00;46.70;;;;;;5051200;28;20941;-60
2023/01/24 06:41:48;;;;;;;26.00;24.80;;;20.00;46.60;;;;;;5051072;28;20444;-61
2023/01/24 06:44:16;;;;;;;24.87;23.77;;;20.00;46.60;;;;;;5051140;28;20458;-61
2023/01/24 06:46:50;;;;;;;25.57;24.47;;;20.00;46.60;;;;;;5084201;22;20495;-52
2023/01/24 06:49:17;;;;;;;25.20;24.17;;;20.00;46.50;;;;;;5023981;28;20870;-49
2023/01/24 06:51:50;;;;;;;24.37;23.37;;;20.00;46.50;;;;;;5031273;28;20627;-50
2023/01/24 06:54:17;;;;;;;25.30;24.20;;;20.00;46.50;;;;;;5031201;28;20453;-49
2023/01/24 06:56:44;;;;;;;24.87;23.77;;;20.00;46.40;;;;;;5030961;28;20488;-50
2023/01/24 06:59:10;;;;;;;25.10;24.00;;;20.00;46.40;;;;;;5031050;28;20445;-50
2023/01/24 07:01:37;;;;;;;26.33;25.23;;;20.00;46.40;;;;;;5030999;28;20548;-49
2023/01/24 07:04:05;;;;;;;26.20;24.90;;;20.00;46.40;;;;;;5031092;28;20456;-50
2023/01/24 07:06:32;;;;;;;25.13;24.03;;;20.00;46.30;;;;;;5030972;28;20465;-50
2023/01/24 07:08:59;;;;;;;25.70;24.60;;;20.00;46.40;;;;;;5030803;28;21236;-50
2023/01/24 07:11:26;;;;;;;26.13;25.03;;;20.00;46.30;;;;;;5033130;28;20544;-50
2023/01/24 07:13:53;;;;;;;26.60;25.50;;;19.90;46.20;;;;;;5034623;28;20535;-49
2023/01/24 07:16:19;;;;;;;25.13;24.03;;;19.90;46.20;;;;;;5034290;28;20488;-54
2023/01/24 07:18:47;;;;;;;25.00;24.00;;;19.90;46.20;;;;;;5034289;28;20460;-52
2023/01/24 07:21:16;;;;;;;25.20;24.20;;;19.90;46.20;;;;;;5034377;28;20956;-49
2023/01/24 07:23:45;;;;;;;24.90;23.80;;;19.90;46.20;;;;;;5034294;28;20445;-49
2023/01/24 07:26:13;;;;;;;25.17;24.10;;;19.90;46.10;;;;;;5034448;28;20484;-50
2023/01/24 07:28:40;;;;;;;25.53;24.43;;;19.90;46.20;;;;;;5034194;28;20455;-50
2023/01/24 07:31:08;;;;;;;24.60;23.60;;;19.80;46.10;;;;;;5034124;28;20463;-50
2023/01/24 07:33:35;;;;;;;25.20;24.10;;;19.90;46.20;;;;;;5034176;28;20451;-51
2023/01/24 07:36:01;;;;;;;24.37;23.30;;;19.80;46.10;;;;;;5033998;28;20549;-50
2023/01/24 07:38:30;;;;;;;25.00;23.90;;;19.90;46.20;;;;;;5034021;28;20544;-50
2023/01/24 07:40:56;;;;;;;25.30;24.20;;;19.80;46.10;;;;;;5033896;28;20856;-49
2023/01/24 07:43:23;;;;;;;25.43;24.37;;;19.80;46.10;;;;;;5033969;28;20532;-50
2023/01/24 07:45:50;;;;;;;25.50;24.40;;;19.80;46.60;;;;;;5033529;28;20612;-55
2023/01/24 07:48:17;;;;;;;26.60;25.50;;;19.80;46.10;;;;;;5034020;28;20441;-52
2023/01/24 07:50:43;;;;;;;24.80;23.80;;;19.80;46.10;;;;;;5033606;28;20445;-50
2023/01/24 07:53:10;;;;;;;25.23;24.17;;;19.80;46.10;;;;;;5033829;28;20449;-50
2023/01/24 07:55:38;;;;;;;25.00;24.00;;;19.80;46.20;;;;;;5033813;28;20531;-50
2023/01/24 07:58:05;;;;;;;25.73;24.63;;;19.70;46.10;;;;;;5033563;28;20491;-49
2023/01/24 08:00:32;;;;;;;25.37;24.33;;;19.70;46.00;;;;;;5033529;28;20837;-50
2023/01/24 08:02:59;;;;;;;25.10;24.00;;;19.70;46.10;;;;;;5033651;28;20540;-50
2023/01/24 08:05:26;;;;;;;24.90;23.90;;;19.70;46.10;;;;;;5033526;28;20942;-50
2023/01/24 08:07:55;;;;;;;25.17;24.17;;;19.70;46.00;;;;;;5033434;28;20480;-53
2023/01/24 08:10:22;;;;;;;26.00;24.90;;;19.70;46.00;;;;;;5033236;28;20441;-49
2023/01/24 08:12:51;;;;;;;25.97;24.90;;;19.70;46.10;;;;;;5033371;28;20453;-50
2023/01/24 08:15:18;;;;;;;25.63;24.53;;;19.70;46.00;;;;;;5033409;28;20456;-50
2023/01/24 08:17:44;;;;;;;25.80;24.70;;;19.70;46.10;;;;;;5033204;28;20489;-50
2023/01/24 08:20:12;;;;;;;25.73;24.63;;;19.70;46.00;;;;;;5033001;28;20524;-50
2023/01/24 08:22:39;;;;;;;25.30;24.30;;;19.60;45.90;;;;;;5032118;28;20456;-52
2023/01/24 08:25:07;;;;;;;25.40;24.30;;;19.60;45.90;;;;;;5033115;28;20449;-50
2023/01/24 08:27:34;;;;;;;25.27;24.20;;;19.60;45.90;;;;;;5033014;28;20472;-50
2023/01/24 08:30:02;;;;;;;26.03;24.93;;;19.60;45.80;;;;;;5032923;28;20441;-50
2023/01/24 08:32:31;;;;;;;25.07;24.07;;;19.60;45.70;;;;;;5033012;28;20460;-52
2023/01/24 08:34:58;;;;;;;25.33;24.27;;;19.50;45.60;;;;;;5033132;28;20441;-50
2023/01/24 08:37:25;;;;;;;24.60;23.60;;;19.50;45.60;;;;;;5033106;28;21003;-50
2023/01/24 08:39:51;;;;;;;25.53;24.40;;;19.50;45.80;;;;;;5032775;28;20535;-51
2023/01/24 08:42:18;;;;;;;25.30;24.20;;;19.50;45.90;;;;;;5033061;28;20445;-51
2023/01/24 08:44:45;;;;;;;25.47;24.37;;;19.50;45.90;;;;;;5032961;28;20876;-51
2023/01/24 08:47:13;;;;;;;24.77;23.77;;;19.50;45.90;;;;;;5033082;28;20563;-54
2023/01/24 08:49:40;;;;;;;24.40;23.40;;;19.50;45.90;;;;;;5033797;28;20540;-49
2023/01/24 08:52:07;;;;;;;24.67;23.60;;;19.50;45.90;;;;;;5034205;28;20540;-50
2023/01/24 08:54:35;;;;;;;25.13;24.03;;;19.50;45.90;;;;;;5034408;28;20507;-50
2023/01/24 08:57:02;;;;;;;24.80;23.70;;;19.50;45.90;;;;;;5033856;28;20485;-51
2023/01/24 08:59:29;;;;;;;24.70;23.60;;;19.50;45.90;;;;;;5033881;28;20546;-49
2023/01/24 09:01:56;;;;;;;25.00;23.90;;;19.50;45.90;;;;;;5033730;28;20449;-50
2023/01/24 09:04:26;;;;;;;24.50;23.50;;;19.50;45.80;;;;;;5032990;28;20455;-50
2023/01/24 09:06:53;;;;;;;24.83;23.73;;;19.50;45.80;;;;;;5032367;28;20469;-50
2023/01/24 09:09:20;;;;;;;24.60;23.60;;;19.50;45.80;;;;;;5032160;28;20455;-50
2023/01/24 09:11:47;;;;;;;25.20;24.10;;;19.50;45.80;;;;;;5032486;28;21000;-50
2023/01/24 09:14:14;;;;;;;24.80;23.70;;;19.50;45.80;;;;;;5032266;28;20806;-50
2023/01/24 09:16:40;;;;;;;25.87;24.77;;;19.50;45.80;;;;;;5032182;28;20488;-52
2023/01/24 09:19:08;;;;;;;25.23;24.23;;;19.50;45.80;;;;;;5032051;28;20532;-51
2023/01/24 09:21:36;;;;;;;24.80;23.80;;;19.50;45.80;;;;;;5032080;28;20456;-53
2023/01/24 09:24:03;;;;;;;25.20;24.10;;;19.40;45.70;;;;;;5032267;28;20853;-51
2023/01/24 09:26:29;;;;;;;24.90;23.90;;;19.40;45.70;;;;;;5032084;28;20468;-50
2023/01/24 09:28:56;;;;;;;24.50;23.50;;;19.40;45.70;;;;;;5031822;28;20543;-50
2023/01/24 09:31:23;;;;;;;25.00;24.00;;;19.40;45.70;;;;;;5032016;28;20540;-51
2023/01/24 09:33:50;;;;;;;25.43;24.33;;;19.40;45.70;;;;;;5031667;28;20536;-52
2023/01/24 09:36:17;;;;;;;25.80;24.70;;;19.40;45.70;;;;;;5031924;28;20667;-53
2023/01/24 09:38:45;;;;;;;24.63;23.53;;;19.40;45.70;;;;;;5031759;28;20826;-50
2023/01/24 09:41:22;;;;;;;25.10;24.07;;;19.40;45.70;;;;;;5031916;28;20536;-50
2023/01/24 09:43:52;;;;;;;23.97;22.97;;;19.40;45.70;;;;;;5031811;28;20813;-50
2023/01/24 09:46:28;;;;;;;24.40;23.30;;;19.40;46.20;;;;;;5031686;28;20603;-50
2023/01/24 09:49:02;;;;;;;24.80;23.70;;;19.40;45.70;;;;;;5031676;28;20448;-49
2023/01/24 09:51:33;;;;;;;24.53;23.43;;;19.40;45.70;;;;;;5031811;28;20455;-52
2023/01/24 09:54:03;;;;;;;25.33;24.13;;;19.40;45.70;;;;;;5031749;28;20460;-50
2023/01/24 09:56:34;;;;;;;24.80;23.80;;;19.40;45.70;;;;;;5031572;28;20827;-50
2023/01/24 09:59:14;;;;;;;24.27;23.27;;;19.30;45.50;;;;;;5031459;28;20459;-51
2023/01/24 10:01:41;;;;;;;24.10;23.10;;;19.30;45.50;;;;;;5031581;28;20456;-52
2023/01/24 10:04:19;;;;;;;25.27;24.27;;;19.30;45.50;;;;;;5031645;28;20455;-50
2023/01/24 10:07:03;;;;;;;25.00;23.87;;;19.30;45.50;;;;;;5031884;28;20471;-51
2023/01/24 10:09:43;;;;;;;25.50;24.40;;;19.30;45.50;;;;;;5031571;28;20531;-50
2023/01/24 10:12:23;;;;;;;24.33;23.33;;;19.20;45.40;;;;;;5031501;28;20784;-50
2023/01/24 10:15:02;;;;;;;24.40;23.40;;;19.20;45.30;;;;;;5031521;28;20441;-50
2023/01/24 10:17:52;;;;;;;24.17;23.17;;;19.20;45.40;;;;;;5031307;28;20486;-50
2023/01/24 10:20:50;;;;;;;24.83;23.73;;;19.20;45.40;;;;;;5031450;28;20957;-50
2023/01/24 10:23:21;;;;;;;25.17;24.07;;;19.20;45.30;;;;;;5029017;28;20453;-49
2023/01/24 10:25:56;;;;;;;24.43;23.43;;;19.20;45.30;;;;;;5031442;28;20532;-52
2023/01/24 10:28:27;;;;;;;24.67;23.67;;;19.20;45.40;;;;;;5031516;28;20483;-50
2023/01/24 10:31:01;;;;;;;24.73;23.63;;;19.20;45.40;;;;;;5031223;28;20807;-50
2023/01/24 10:33:32;;;;;;;25.23;24.23;;;19.20;45.50;;;;;;5031656;28;20871;-50
2023/01/24 10:36:04;;;;;;;25.30;24.20;;;19.20;45.60;;;;;;5031405;28;20869;-50
2023/01/24 10:38:31;;;;;;;25.40;24.30;;;19.20;46.20;;;;;;5031317;28;20480;-50
2023/01/24 10:41:14;;;;;;;24.80;23.80;;;19.20;45.60;;;;;;5031080;28;20452;-49
2023/01/24 10:43:42;;;;;;;24.70;23.60;;;19.20;45.60;;;;;;5031279;28;20456;-50
2023/01/24 10:46:26;;;;;;;24.60;23.60;;;19.20;45.60;;;;;;5033033;28;20469;-51
2023/01/24 10:48:57;;;;;;;24.70;23.70;;;19.20;45.60;;;;;;5034971;28;20820;-49
2023/01/24 10:51:25;;;;;;;26.00;24.90;;;19.20;45.60;;;;;;5034956;28;20587;-50
2023/01/24 10:53:52;;;;;;;25.57;24.37;;;19.20;45.60;;;;;;5034991;28;20453;-49
2023/01/24 10:56:22;;;;;;;25.33;24.33;;;19.20;45.60;;;;;;5034994;28;20479;-49
2023/01/24 10:58:57;;;;;;;25.90;24.80;;;19.20;45.60;;;;;;5034788;28;20476;-50
2023/01/24 11:01:31;;;;;;;25.50;24.40;;;19.20;45.60;;;;;;5034826;28;20445;-49
2023/01/24 11:03:59;;;;;;;24.93;23.93;;;19.20;45.50;;;;;;5034811;28;20452;-50
2023/01/24 11:06:39;;;;;;;24.77;23.77;;;19.20;45.50;;;;;;5034570;28;20476;-51
2023/01/24 11:09:11;;;;;;;26.33;25.20;;;19.20;45.50;;;;;;5034564;28;20523;-50
2023/01/24 11:11:45;;;;;;;26.33;25.23;;;19.20;45.50;;;;;;5034582;28;20463;-49
2023/01/24 11:14:15;;;;;;;26.40;25.30;;;19.20;45.50;;;;;;5034520;28;20539;-49
2023/01/24 11:16:44;;;;;;;28.53;27.20;;;19.20;45.50;;;;;;5034447;28;20465;-49
2023/01/24 11:19:25;;;;;;;25.63;24.53;;;19.20;45.40;;;;;;5034283;28;20492;-49
2023/01/24 11:21:54;;;;;;;25.10;23.90;;;19.20;45.50;;;;;;5034653;28;20536;-51
2023/01/24 11:24:22;;;;;;;25.27;24.07;;;19.20;45.40;;;;;;5034378;28;20444;-50
2023/01/24 11:26:57;;;;;;;25.67;24.57;;;19.20;45.40;;;;;;5034214;28;20477;-49
2023/01/24 11:29:24;;;;;;;25.93;24.83;;;19.20;45.40;;;;;;5034173;28;20519;-48
2023/01/24 11:31:54;;;;;;;26.50;25.40;;;19.20;45.40;;;;;;5034124;28;20447;-50
2023/01/24 11:34:45;;;;;;;26.10;25.00;;;19.20;45.40;;;;;;5034319;28;20480;-49
2023/01/24 11:37:46;;;;;;;26.23;25.03;;;19.10;45.30;;;;;;5034035;28;20468;-52
2023/01/24 11:40:25;;;;;;;26.27;25.17;;;19.20;45.40;;;;;;5029475;28;20459;-49
2023/01/24 11:43:05;;;;;;;26.23;25.13;;;19.10;45.30;;;;;;5034031;28;20448;-49
2023/01/24 11:45:42;;;;;;;25.83;24.73;;;19.10;45.30;;;;;;5033951;28;20448;-49
2023/01/24 11:48:16;;;;;;;24.30;23.30;;;19.10;45.30;;;;;;5033805;28;20445;-49
2023/01/24 11:50:53;;;;;;;26.03;24.93;;;19.10;45.30;;;;;;5033665;28;20957;-48
2023/01/24 11:53:47;;;;;;;26.63;25.53;;;19.10;45.30;;;;;;5033904;28;20445;-49
2023/01/24 11:56:26;;;;;;;25.90;24.80;;;19.10;45.30;;;;;;5033392;28;20472;-49
2023/01/24 11:59:23;;;;;;;26.47;25.37;;;19.10;45.30;;;;;;5033387;28;20485;-49
2023/01/24 12:02:00;;;;;;;25.30;24.20;;;19.10;45.30;;;;;;5033617;28;20816;-48
2023/01/24 12:04:59;;;;;;;25.50;24.40;;;19.00;45.20;;;;;;5033701;28;20451;-49
2023/01/24 12:07:33;;;;;;;25.63;24.43;;;19.00;45.20;;;;;;5033465;28;20527;-48
2023/01/24 12:10:15;;;;;;;25.73;24.63;;;19.00;45.10;;;;;;5033230;28;20451;-50
2023/01/24 12:12:47;;;;;;;25.77;24.67;;;19.00;45.10;;;;;;5033511;28;20535;-49
2023/01/24 12:15:33;;;;;;;25.70;24.60;;;19.00;45.20;;;;;;5033449;28;20455;-50
2023/01/24 12:18:22;;;;;;;25.30;24.20;;;19.00;45.20;;;;;;5033350;28;20484;-49
2023/01/24 12:21:09;;;;;;;26.27;25.17;;;19.00;45.20;;;;;;5033118;28;20445;-52
2023/01/24 12:23:43;;;;;;;26.20;25.10;;;19.00;45.30;;;;;;5033349;28;20445;-51
2023/01/24 12:26:16;;;;;;;26.00;24.80;;;19.00;45.30;;;;;;5033137;28;20571;-49
2023/01/24 12:28:51;;;;;;;24.47;23.37;;;19.00;45.40;;;;;;5033150;28;20802;-49
2023/01/24 12:31:27;;;;;;;24.73;23.57;;;19.00;45.40;;;;;;5033117;28;20444;-51
2023/01/24 12:34:00;;;;;;;24.70;23.60;;;19.00;45.40;;;;;;5033057;28;20543;-50
2023/01/24 12:36:37;;;;;;;25.57;24.47;;;19.00;45.40;;;;;;5032940;28;20467;-49
2023/01/24 12:39:17;;;;;;;24.73;23.63;;;19.00;45.30;;;;;;5032811;28;20491;-52
2023/01/24 12:41:47;;;;;;;25.00;23.83;;;19.00;45.30;;;;;;5032862;28;20544;-51
2023/01/24 12:44:26;;;;;;;24.93;23.63;;;19.00;45.30;;;;;;5032809;28;20862;-49
2023/01/24 12:47:12;;;;;;;24.47;23.37;;;19.00;45.30;;;;;;5033201;28;20968;-49
2023/01/24 12:49:47;;;;;;;25.00;23.90;;;19.00;45.30;;;;;;5032706;28;20808;-50
2023/01/24 12:52:21;;;;;;;24.37;23.27;;;19.00;45.30;;;;;;5032663;28;20440;-52
2023/01/24 12:54:54;;;;;;;24.47;23.37;;;19.00;45.30;;;;;;5032693;28;20482;-54
2023/01/24 12:57:30;;;;;;;23.90;22.90;;;19.00;45.30;;;;;;5032569;28;20465;-50
2023/01/24 12:59:57;;;;;;;24.83;23.83;;;19.00;45.20;;;;;;5032439;28;21009;-51
2023/01/24 13:03:17;;;;;;;25.37;24.27;;;19.10;45.30;;;;;;5032726;28;20782;-51
2023/01/24 13:05:53;;;;;;;25.83;24.67;;;19.00;45.20;;;;;;4971266;28;20534;-49
2023/01/24 13:08:31;;;;;;;24.57;23.47;;;19.00;45.20;;;;;;4970634;28;20462;-49
2023/01/24 13:11:17;;;;;;;25.13;24.03;;;19.00;45.80;;;;;;5014749;28;20437;-49
2023/01/24 13:13:48;;;;;;;25.00;23.90;;;19.00;45.20;;;;;;5032384;28;20528;-51
2023/01/24 13:16:43;;;;;;;25.90;24.80;;;19.00;45.20;;;;;;5032278;28;20461;-53
2023/01/24 13:19:23;;;;;;;25.13;24.03;;;19.00;45.20;;;;;;5031997;28;20485;-50
2023/01/24 13:21:58;;;;;;;24.70;23.60;;;19.00;45.20;;;;;;5032305;28;20452;-50
2023/01/24 13:24:49;;;;;;;25.40;24.30;;;19.00;45.20;;;;;;5032282;28;20531;-49